createdAt,value
2023-05-24T00:00:30.602Z,4.5
2023-05-24T00:01:33.904Z,5.6
2023-05-24T00:02:37.172Z,3.4
2023-05-24T00:03:40.479Z,4.1
2023-05-24T00:04:43.830Z,4.1
2023-05-24T00:05:47.064Z,3.5
2023-05-24T00:06:50.364Z,3.6
2023-05-24T00:07:53.660Z,5
2023-05-24T00:08:56.964Z,4.1
2023-05-24T00:10:00.247Z,3.7
2023-05-24T00:11:02.529Z,3.8
2023-05-24T00:12:05.834Z,5.3
2023-05-24T00:13:09.102Z,4
2023-05-24T00:14:12.414Z,4
2023-05-24T00:15:15.700Z,6
2023-05-24T00:16:18.996Z,3.8
2023-05-24T00:17:22.276Z,4.6
2023-05-24T00:18:25.584Z,4.1
2023-05-24T00:19:28.862Z,5
2023-05-24T00:20:32.165Z,5
2023-05-24T00:21:35.448Z,4.9
2023-05-24T00:22:38.729Z,4.9
2023-05-24T00:23:42.048Z,5
2023-05-24T00:24:44.337Z,5.2
2023-05-24T00:25:47.625Z,4.3
2023-05-24T00:26:50.931Z,3.9
2023-05-24T00:27:54.217Z,5.2
2023-05-24T00:28:57.529Z,4.69
2023-05-24T00:29:59.833Z,5.2
2023-05-24T00:31:03.116Z,5.2
2023-05-24T00:32:06.421Z,3.9
2023-05-24T00:33:09.718Z,4.1
2023-05-24T00:34:12.991Z,6.3
2023-05-24T00:35:16.285Z,5.4
2023-05-24T00:36:19.571Z,5.3
2023-05-24T00:37:22.863Z,4.6
2023-05-24T00:38:26.417Z,3.2
2023-05-24T00:39:29.735Z,3.8
2023-05-24T00:40:33.015Z,3.3
2023-05-24T00:41:36.308Z,5.3
2023-05-24T00:42:39.601Z,5.6
2023-05-24T00:43:41.892Z,3.4
2023-05-24T00:44:45.197Z,3.7
2023-05-24T00:45:48.480Z,3.4
2023-05-24T00:46:51.898Z,3.8
2023-05-24T00:47:55.067Z,2.9
2023-05-24T00:48:58.364Z,4.4
2023-05-24T00:50:01.700Z,4.5
2023-05-24T00:51:04.945Z,4.19
2023-05-24T00:52:08.231Z,3.2
2023-05-24T00:53:11.527Z,3.4
2023-05-24T00:54:14.872Z,2.8
2023-05-24T00:55:18.117Z,3.3
2023-05-24T00:56:21.451Z,3.5
2023-05-24T00:57:23.733Z,3.7
2023-05-24T00:58:27.018Z,3.7
2023-05-24T00:59:30.294Z,3.4
2023-05-24T01:00:33.586Z,3.3
2023-05-24T01:01:36.888Z,3.9
2023-05-24T01:02:40.172Z,3.3
2023-05-24T01:03:43.496Z,3.8
2023-05-24T01:04:46.773Z,3.1
2023-05-24T01:05:50.054Z,2.8
2023-05-24T01:07:56.641Z,2.7
2023-05-24T01:08:59.929Z,3.7
2023-05-24T01:10:03.244Z,3.7
2023-05-24T01:11:05.515Z,2.9
2023-05-24T01:12:08.816Z,3.6
2023-05-24T01:14:15.455Z,3.4
2023-05-24T01:15:18.708Z,3
2023-05-24T01:16:22.008Z,3.1
2023-05-24T01:17:25.302Z,3.6
2023-05-24T01:18:28.567Z,3.9
2023-05-24T01:19:31.888Z,2.9
2023-05-24T01:20:35.165Z,3.3
2023-05-24T01:21:38.449Z,3.2
2023-05-24T01:22:41.753Z,3.2
2023-05-24T01:23:45.035Z,2.7
2023-05-24T01:24:47.351Z,3.2
2023-05-24T01:25:50.679Z,2.8
2023-05-24T01:26:53.945Z,3.7
2023-05-24T01:27:57.225Z,2.9
2023-05-24T01:29:00.517Z,3
2023-05-24T01:30:03.812Z,2.9
2023-05-24T01:31:07.090Z,2.8
2023-05-24T01:32:10.403Z,4.19
2023-05-24T01:33:13.664Z,3.8
2023-05-24T01:34:16.992Z,2.7
2023-05-24T01:35:20.653Z,3.5
2023-05-24T01:36:23.952Z,3.1
2023-05-24T01:37:27.235Z,2.7
2023-05-24T01:38:29.545Z,3.3
2023-05-24T01:39:32.839Z,3
2023-05-24T01:40:36.131Z,3.4
2023-05-24T01:41:39.431Z,2.8
2023-05-24T01:42:42.714Z,3.2
2023-05-24T01:43:46.007Z,3.3
2023-05-24T01:44:49.308Z,2.8
2023-05-24T01:45:52.599Z,3.4
2023-05-24T01:46:55.892Z,2.8
2023-05-24T01:47:59.189Z,3.2
2023-05-24T01:49:02.467Z,2.9
2023-05-24T01:50:05.775Z,3
2023-05-24T01:51:09.063Z,3.2
2023-05-24T01:52:11.365Z,3.4
2023-05-24T01:53:14.668Z,2.8
2023-05-24T01:54:17.947Z,2.4
2023-05-24T01:55:21.234Z,2.5
2023-05-24T01:56:24.539Z,2.7
2023-05-24T01:57:27.818Z,2.4
2023-05-24T01:58:31.125Z,3
2023-05-24T01:59:34.406Z,3.1
2023-05-24T02:00:37.695Z,2.8
2023-05-24T02:01:41.007Z,2.8
2023-05-24T02:02:44.285Z,2.8
2023-05-24T02:03:47.578Z,2.4
2023-05-24T02:04:50.850Z,3.1
2023-05-24T02:05:53.163Z,2.7
2023-05-24T02:06:56.459Z,3.3
2023-05-24T02:07:59.762Z,2.6
2023-05-24T02:09:03.046Z,2.7
2023-05-24T02:10:06.335Z,2.6
2023-05-24T02:11:09.625Z,3
2023-05-24T02:12:12.923Z,3
2023-05-24T02:13:16.226Z,2.8
2023-05-24T02:14:19.503Z,2.6
2023-05-24T02:15:22.806Z,3.2
2023-05-24T02:16:26.102Z,2.5
2023-05-24T02:17:29.387Z,3
2023-05-24T02:18:32.677Z,3
2023-05-24T02:19:34.976Z,3
2023-05-24T02:20:38.271Z,3
2023-05-24T02:21:41.573Z,3.3
2023-05-24T02:22:44.869Z,2.6
2023-05-24T02:23:48.162Z,2.6
2023-05-24T02:24:51.444Z,2.9
2023-05-24T02:25:54.731Z,2.9
2023-05-24T02:28:01.314Z,2.3
2023-05-24T02:29:04.607Z,3.1
2023-05-24T02:30:07.914Z,3
2023-05-24T02:31:11.194Z,2.6
2023-05-24T02:32:14.485Z,3.2
2023-05-24T02:33:16.802Z,2.4
2023-05-24T02:34:20.076Z,2.6
2023-05-24T02:35:23.370Z,2.5
2023-05-24T02:36:27.064Z,2.4
2023-05-24T02:37:30.361Z,2.7
2023-05-24T02:38:33.646Z,2.2
2023-05-24T02:39:36.976Z,3
2023-05-24T02:40:40.243Z,2.5
2023-05-24T02:41:43.529Z,2.9
2023-05-24T02:42:46.818Z,2.4
2023-05-24T02:43:50.089Z,2.8
2023-05-24T02:44:53.407Z,2.7
2023-05-24T02:45:56.694Z,2.2
2023-05-24T02:46:59.003Z,2.2
2023-05-24T02:48:02.288Z,2.4
2023-05-24T02:49:05.599Z,2.3
2023-05-24T02:50:08.873Z,2.3
2023-05-24T02:51:12.159Z,2.3
2023-05-24T02:52:15.474Z,2.2
2023-05-24T02:53:18.767Z,2.3
2023-05-24T02:54:22.041Z,2.2
2023-05-24T02:55:25.345Z,2.3
2023-05-24T02:56:28.632Z,2.2
2023-05-24T02:57:31.933Z,2.8
2023-05-24T02:58:35.207Z,2.5
2023-05-24T02:59:38.519Z,2.4
2023-05-24T03:00:40.802Z,2.6
2023-05-24T03:01:44.118Z,2.6
2023-05-24T03:02:47.404Z,3
2023-05-24T03:03:50.700Z,2.7
2023-05-24T03:04:53.980Z,2.3
2023-05-24T03:05:57.275Z,3.5
2023-05-24T03:07:00.567Z,2.5
2023-05-24T03:08:03.856Z,3.2
2023-05-24T03:09:07.140Z,2.7
2023-05-24T03:10:10.451Z,2.4
2023-05-24T03:11:13.731Z,2.3
2023-05-24T03:12:17.032Z,2.7
2023-05-24T03:13:20.312Z,3
2023-05-24T03:14:22.638Z,3
2023-05-24T03:15:25.926Z,2.4
2023-05-24T03:16:29.223Z,2.6
2023-05-24T03:17:32.498Z,2.4
2023-05-24T03:18:35.791Z,2.2
2023-05-24T03:19:39.083Z,2.4
2023-05-24T03:20:42.386Z,2.5
2023-05-24T03:21:45.665Z,2.5
2023-05-24T03:22:48.967Z,2.5
2023-05-24T03:23:52.257Z,2.6
2023-05-24T03:24:55.569Z,2.5
2023-05-24T03:25:58.838Z,2.2
2023-05-24T03:27:02.135Z,2.09
2023-05-24T03:28:04.440Z,2.6
2023-05-24T03:29:07.730Z,2.3
2023-05-24T03:30:11.004Z,3
2023-05-24T03:31:14.314Z,2
2023-05-24T03:32:17.601Z,2.4
2023-05-24T03:33:20.914Z,2.2
2023-05-24T03:34:24.440Z,2.2
2023-05-24T03:35:27.718Z,2.4
2023-05-24T03:36:31.021Z,2.5
2023-05-24T03:37:34.309Z,2
2023-05-24T03:38:37.617Z,2.3
2023-05-24T03:39:40.905Z,2.4
2023-05-24T03:40:44.189Z,2.4
2023-05-24T03:41:46.517Z,2.6
2023-05-24T03:42:49.785Z,2.6
2023-05-24T03:43:53.078Z,2.09
2023-05-24T03:44:56.369Z,2.2
2023-05-24T03:45:59.673Z,2.3
2023-05-24T03:48:06.260Z,1.9
2023-05-24T03:49:09.556Z,2.2
2023-05-24T03:50:12.833Z,2.09
2023-05-24T03:51:16.136Z,2.09
2023-05-24T03:52:19.423Z,3.8
2023-05-24T03:53:22.723Z,2.3
2023-05-24T03:54:26.005Z,2.3
2023-05-24T03:55:28.318Z,2.4
2023-05-24T03:56:31.593Z,2.09
2023-05-24T03:57:34.896Z,2
2023-05-24T03:58:38.195Z,1.8
2023-05-24T03:59:41.499Z,2.6
2023-05-24T04:00:44.768Z,2.2
2023-05-24T04:01:47.112Z,5.1
2023-05-24T04:02:50.380Z,2.09
2023-05-24T04:03:53.688Z,2
2023-05-24T04:04:56.960Z,2.4
2023-05-24T04:06:00.257Z,2
2023-05-24T04:07:03.545Z,2.09
2023-05-24T04:08:06.826Z,1.7
2023-05-24T04:09:10.127Z,1.9
2023-05-24T04:10:13.425Z,1.9
2023-05-24T04:11:16.783Z,1.7
2023-05-24T04:12:20.005Z,2
2023-05-24T04:13:23.287Z,2.3
2023-05-24T04:14:26.579Z,2.2
2023-05-24T04:15:28.890Z,1.9
2023-05-24T04:16:32.176Z,1.8
2023-05-24T04:17:35.480Z,2
2023-05-24T04:18:38.755Z,2.4
2023-05-24T04:19:42.061Z,1.9
2023-05-24T04:20:45.346Z,1.9
2023-05-24T04:21:48.649Z,1.8
2023-05-24T04:22:51.944Z,1.8
2023-05-24T04:23:55.225Z,2
2023-05-24T04:24:58.638Z,1.9
2023-05-24T04:26:01.798Z,1.9
2023-05-24T04:27:05.160Z,2.2
2023-05-24T04:28:08.391Z,2.7
2023-05-24T04:29:10.712Z,2.2
2023-05-24T04:30:13.990Z,2.7
2023-05-24T04:31:17.303Z,2.2
2023-05-24T04:32:20.576Z,2.5
2023-05-24T04:33:23.872Z,2
2023-05-24T04:34:27.166Z,1.9
2023-05-24T04:35:30.509Z,2
2023-05-24T04:36:33.742Z,1.8
2023-05-24T04:37:37.030Z,2.09
2023-05-24T04:38:40.324Z,2.2
2023-05-24T04:39:43.628Z,1.9
2023-05-24T04:40:46.926Z,1.9
2023-05-24T04:41:50.212Z,2.8
2023-05-24T04:42:52.527Z,1.8
2023-05-24T04:43:55.808Z,2
2023-05-24T04:44:59.111Z,2.3
2023-05-24T04:46:02.412Z,1.7
2023-05-24T04:47:05.694Z,2.2
2023-05-24T04:48:08.998Z,2.4
2023-05-24T04:49:12.265Z,2
2023-05-24T04:50:15.634Z,2.09
2023-05-24T04:51:18.867Z,1.7
2023-05-24T04:52:22.132Z,2.6
2023-05-24T04:53:25.446Z,2.4
2023-05-24T04:54:28.744Z,2.09
2023-05-24T04:55:32.019Z,2.2
2023-05-24T04:56:34.335Z,2.6
2023-05-24T04:57:37.641Z,2.2
2023-05-24T04:59:44.195Z,1.9
2023-05-24T05:00:47.584Z,2.2
2023-05-24T05:01:50.786Z,2
2023-05-24T05:02:54.094Z,2.3
2023-05-24T05:03:57.370Z,2
2023-05-24T05:05:00.666Z,1.9
2023-05-24T05:06:03.952Z,2.09
2023-05-24T05:07:07.274Z,2.2
2023-05-24T05:08:10.550Z,1.9
2023-05-24T05:09:13.862Z,2
2023-05-24T05:10:16.131Z,2.8
2023-05-24T05:11:19.420Z,2.2
2023-05-24T05:12:22.730Z,2.09
2023-05-24T05:13:26.019Z,1.7
2023-05-24T05:14:29.312Z,2.09
2023-05-24T05:15:32.599Z,2
2023-05-24T05:16:35.903Z,2
2023-05-24T05:17:39.190Z,2.09
2023-05-24T05:18:42.483Z,1.5
2023-05-24T05:19:45.778Z,1.8
2023-05-24T05:20:49.072Z,2.3
2023-05-24T05:21:52.337Z,2
2023-05-24T05:22:55.651Z,1.9
2023-05-24T05:23:57.953Z,2.3
2023-05-24T05:25:01.256Z,1.8
2023-05-24T05:26:04.561Z,1.7
2023-05-24T05:27:07.813Z,2.3
2023-05-24T05:28:11.123Z,1.8
2023-05-24T05:29:14.403Z,2.4
2023-05-24T05:30:17.701Z,1.4
2023-05-24T05:31:20.998Z,2.2
2023-05-24T05:32:24.282Z,2
2023-05-24T05:33:27.580Z,2.9
2023-05-24T05:34:30.920Z,2.7
2023-05-24T05:35:34.163Z,1.5
2023-05-24T05:36:37.439Z,1.9
2023-05-24T05:37:39.782Z,2.09
2023-05-24T05:38:43.054Z,1.8
2023-05-24T05:39:46.356Z,1.9
2023-05-24T05:40:49.642Z,1.9
2023-05-24T05:41:52.974Z,2
2023-05-24T05:42:56.253Z,1.5
2023-05-24T05:43:59.528Z,1.8
2023-05-24T05:45:02.823Z,2.09
2023-05-24T05:46:06.097Z,1.5
2023-05-24T05:48:12.685Z,2.09
2023-05-24T05:49:15.982Z,1.5
2023-05-24T05:50:19.289Z,2.2
2023-05-24T05:51:21.603Z,1.4
2023-05-24T05:52:24.914Z,3
2023-05-24T05:53:28.509Z,1.9
2023-05-24T05:54:31.916Z,1.5
2023-05-24T05:55:35.121Z,1.8
2023-05-24T05:56:38.381Z,1.5
2023-05-24T05:57:41.733Z,1.2
2023-05-24T05:58:44.987Z,1.3
2023-05-24T05:59:48.274Z,2
2023-05-24T06:00:51.690Z,1.8
2023-05-24T06:01:54.946Z,2
2023-05-24T06:02:58.281Z,1.3
2023-05-24T06:04:01.453Z,2.4
2023-05-24T06:05:03.830Z,1.9
2023-05-24T06:06:07.087Z,1.9
2023-05-24T06:07:10.425Z,1.3
2023-05-24T06:08:13.666Z,1.7
2023-05-24T06:09:16.908Z,1.9
2023-05-24T06:10:20.268Z,1.5
2023-05-24T06:11:23.518Z,1.3
2023-05-24T06:12:26.954Z,1.5
2023-05-24T06:13:30.094Z,1.3
2023-05-24T06:14:33.438Z,1.5
2023-05-24T06:15:36.657Z,1.8
2023-05-24T06:16:40.015Z,1.3
2023-05-24T06:17:43.211Z,1.8
2023-05-24T06:18:45.598Z,1.7
2023-05-24T06:19:48.905Z,1.7
2023-05-24T06:20:52.126Z,2.2
2023-05-24T06:21:55.462Z,2.09
2023-05-24T06:22:58.815Z,2.9
2023-05-24T06:24:02.029Z,1.5
2023-05-24T06:25:05.336Z,1.3
2023-05-24T06:26:08.571Z,1.7
2023-05-24T06:27:11.968Z,1.5
2023-05-24T06:28:15.234Z,1.4
2023-05-24T06:29:18.454Z,1.6
2023-05-24T06:30:21.788Z,1.6
2023-05-24T06:31:25.042Z,2.8
2023-05-24T06:32:28.662Z,1.4
2023-05-24T06:33:30.963Z,1.4
2023-05-24T06:34:34.268Z,2.09
2023-05-24T06:35:37.542Z,1.6
2023-05-24T06:36:40.848Z,1.3
2023-05-24T06:37:44.266Z,1.6
2023-05-24T06:38:47.408Z,1.8
2023-05-24T06:39:50.774Z,2.5
2023-05-24T06:40:54.009Z,1.9
2023-05-24T06:41:57.330Z,1.7
2023-05-24T06:43:00.611Z,1.6
2023-05-24T06:44:03.904Z,1.5
2023-05-24T06:45:07.187Z,1.8
2023-05-24T06:46:10.552Z,1.9
2023-05-24T06:47:12.778Z,2.09
2023-05-24T06:48:16.103Z,1.3
2023-05-24T06:49:19.373Z,1.6
2023-05-24T06:50:22.731Z,1.3
2023-05-24T06:51:26.038Z,1.6
2023-05-24T06:52:29.328Z,1.4
2023-05-24T06:53:32.597Z,1.9
2023-05-24T06:54:35.920Z,1.4
2023-05-24T06:55:39.190Z,1.4
2023-05-24T06:56:42.474Z,1.3
2023-05-24T06:57:45.782Z,1.5
2023-05-24T06:58:49.107Z,1.4
2023-05-24T06:59:52.364Z,2
2023-05-24T07:00:54.664Z,1.4
2023-05-24T07:01:57.968Z,1.7
2023-05-24T07:03:01.258Z,2.2
2023-05-24T07:04:04.547Z,1.2
2023-05-24T07:05:07.850Z,1.6
2023-05-24T07:06:11.131Z,1.5
2023-05-24T07:07:14.478Z,1.4
2023-05-24T07:08:17.722Z,2
2023-05-24T07:09:20.998Z,1.7
2023-05-24T07:10:24.316Z,1.7
2023-05-24T07:12:30.874Z,1.7
2023-05-24T07:13:34.189Z,1.1
2023-05-24T07:14:36.486Z,1.6
2023-05-24T07:15:39.755Z,1.4
2023-05-24T07:16:43.060Z,2.3
2023-05-24T07:17:46.422Z,1.2
2023-05-24T07:18:49.652Z,1.3
2023-05-24T07:19:52.947Z,1.5
2023-05-24T07:20:56.295Z,1.7
2023-05-24T07:21:59.533Z,1.4
2023-05-24T07:23:02.800Z,1.8
2023-05-24T07:24:06.120Z,1.6
2023-05-24T07:25:09.529Z,1.5
2023-05-24T07:26:12.709Z,1.7
2023-05-24T07:27:16.018Z,1.5
2023-05-24T07:28:18.281Z,2.4
2023-05-24T07:29:21.593Z,1.7
2023-05-24T07:30:24.928Z,2
2023-05-24T07:31:28.179Z,1.8
2023-05-24T07:32:31.458Z,1.4
2023-05-24T07:33:33.809Z,1.7
2023-05-24T07:34:37.054Z,1.4
2023-05-24T07:35:40.347Z,1.9
2023-05-24T07:36:43.639Z,1.1
2023-05-24T07:37:46.937Z,1
2023-05-24T07:38:50.207Z,1.1
2023-05-24T07:39:53.561Z,1.1
2023-05-24T07:40:56.808Z,1.6
2023-05-24T07:42:00.102Z,1.7
2023-05-24T07:43:03.397Z,2.5
2023-05-24T07:44:06.706Z,1.4
2023-05-24T07:45:10.000Z,1.1
2023-05-24T07:46:13.316Z,1.2
2023-05-24T07:47:15.616Z,0.9
2023-05-24T07:48:18.937Z,1.6
2023-05-24T07:49:22.156Z,2.6
2023-05-24T07:50:25.436Z,1.5
2023-05-24T07:51:29.072Z,2.09
2023-05-24T07:52:32.413Z,0.8
2023-05-24T07:53:35.656Z,1.1
2023-05-24T07:54:38.948Z,2.09
2023-05-24T07:56:45.528Z,1.5
2023-05-24T07:57:48.829Z,2
2023-05-24T07:58:52.135Z,1.5
2023-05-24T07:59:55.428Z,1.8
2023-05-24T08:00:57.792Z,1.9
2023-05-24T08:02:01.012Z,2.6
2023-05-24T08:03:04.316Z,1.8
2023-05-24T08:04:07.724Z,1.6
2023-05-24T08:05:10.899Z,1.9
2023-05-24T08:06:14.169Z,1.6
2023-05-24T08:07:17.470Z,2.09
2023-05-24T08:08:20.771Z,1.9
2023-05-24T08:09:24.118Z,1.5
2023-05-24T08:10:27.464Z,1.7
2023-05-24T08:11:30.676Z,2.8
2023-05-24T08:12:33.952Z,1.6
2023-05-24T08:13:37.266Z,1.5
2023-05-24T08:14:39.596Z,2
2023-05-24T08:15:42.821Z,1.6
2023-05-24T08:16:46.111Z,1.5
2023-05-24T08:17:49.420Z,5.2
2023-05-24T08:18:52.692Z,26.7
2023-05-24T08:19:56.013Z,7.1
2023-05-24T08:20:59.322Z,9.3
2023-05-24T08:22:02.638Z,6.7
2023-05-24T08:23:05.908Z,7.1
2023-05-24T08:24:09.160Z,16.5
2023-05-24T08:25:12.536Z,19.79
2023-05-24T08:26:15.794Z,25.7
2023-05-24T08:27:19.056Z,27.2
2023-05-24T08:28:21.336Z,17.7
2023-05-24T08:29:24.638Z,15.3
2023-05-24T08:31:31.224Z,11.9
2023-05-24T08:32:34.543Z,9.89
2023-05-24T08:33:37.791Z,11.7
2023-05-24T08:34:41.104Z,11.4
2023-05-24T08:35:44.379Z,11.2
2023-05-24T08:36:47.677Z,11.4
2023-05-24T08:37:50.985Z,9.5
2023-05-24T08:38:54.280Z,9.39
2023-05-24T08:39:57.547Z,8.89
2023-05-24T08:41:00.847Z,7.5
2023-05-24T08:42:03.146Z,9.3
2023-05-24T08:43:06.438Z,8.39
2023-05-24T08:44:09.790Z,12.4
2023-05-24T08:45:13.191Z,10.6
2023-05-24T08:46:16.339Z,7.4
2023-05-24T08:47:19.676Z,9.5
2023-05-24T08:48:22.928Z,9.89
2023-05-24T08:49:26.497Z,8
2023-05-24T08:50:29.826Z,10.5
2023-05-24T08:51:33.205Z,12.6
2023-05-24T08:52:36.376Z,9.6
2023-05-24T08:53:39.661Z,11.3
2023-05-24T08:54:42.958Z,9.3
2023-05-24T08:55:45.330Z,9.8
2023-05-24T08:56:48.557Z,8.39
2023-05-24T08:57:51.842Z,8
2023-05-24T08:58:55.224Z,6.4
2023-05-24T08:59:58.425Z,8.7
2023-05-24T09:01:01.775Z,9.8
2023-05-24T09:02:05.030Z,9.2
2023-05-24T09:03:08.358Z,9.6
2023-05-24T09:04:11.579Z,9.2
2023-05-24T09:06:18.249Z,7.7
2023-05-24T09:07:21.560Z,7.4
2023-05-24T09:09:28.053Z,9
2023-05-24T09:10:30.387Z,11.2
2023-05-24T09:11:33.752Z,11
2023-05-24T09:12:36.987Z,10.4
2023-05-24T09:13:40.395Z,12.5
2023-05-24T09:14:43.529Z,10.3
2023-05-24T09:15:46.818Z,10.5
2023-05-24T09:16:50.127Z,14.5
2023-05-24T09:17:53.497Z,14
2023-05-24T09:18:56.780Z,10.8
2023-05-24T09:19:59.985Z,9.3
2023-05-24T09:21:03.314Z,15.2
2023-05-24T09:22:06.591Z,14
2023-05-24T09:23:10.000Z,13.7
2023-05-24T09:24:12.169Z,16.4
2023-05-24T09:25:15.519Z,18.6
2023-05-24T09:26:18.734Z,31.3
2023-05-24T09:27:22.054Z,29.5
2023-05-24T09:28:25.513Z,31.4
2023-05-24T09:29:28.790Z,25.3
2023-05-24T09:30:32.044Z,26.2
2023-05-24T09:31:35.229Z,20.7
2023-05-24T09:32:38.495Z,16.9
2023-05-24T09:33:41.845Z,15.5
2023-05-24T09:34:45.092Z,18
2023-05-24T09:35:48.518Z,21.2
2023-05-24T09:36:51.664Z,26
2023-05-24T09:37:54.092Z,19.1
2023-05-24T09:38:57.273Z,19.79
2023-05-24T09:40:00.573Z,29
2023-05-24T09:41:03.889Z,25.7
2023-05-24T09:42:07.245Z,33.3
2023-05-24T09:43:10.443Z,31
2023-05-24T09:44:13.724Z,33.9
2023-05-24T09:45:17.008Z,41.5
2023-05-24T09:46:20.304Z,34.09
2023-05-24T09:47:24.017Z,33.8
2023-05-24T09:48:27.229Z,27
2023-05-24T09:49:30.635Z,24.8
2023-05-24T09:50:33.940Z,23.1
2023-05-24T09:51:36.343Z,23.9
2023-05-24T09:52:39.530Z,24.1
2023-05-24T09:53:42.895Z,31
2023-05-24T09:54:46.112Z,27.8
2023-05-24T09:55:49.442Z,31
2023-05-24T09:56:52.662Z,21.2
2023-05-24T09:57:56.038Z,19.7
2023-05-24T09:58:59.276Z,21.1
2023-05-24T10:00:02.574Z,19.7
2023-05-24T10:01:05.970Z,24.3
2023-05-24T10:02:09.153Z,23.3
2023-05-24T10:03:12.492Z,20.1
2023-05-24T10:04:15.688Z,30.3
2023-05-24T10:05:18.102Z,26
2023-05-24T10:06:21.397Z,55
2023-05-24T10:07:24.647Z,45.7
2023-05-24T10:08:27.877Z,56.1
2023-05-24T10:09:31.183Z,61.6
2023-05-24T10:10:34.498Z,49.7
2023-05-24T10:11:37.718Z,48.3
2023-05-24T10:12:40.939Z,46.6
2023-05-24T10:13:44.428Z,41.1
2023-05-24T10:14:47.605Z,44.4
2023-05-24T10:15:50.976Z,33.8
2023-05-24T10:16:54.243Z,34.2
2023-05-24T10:17:57.591Z,25.8
2023-05-24T10:18:59.881Z,30
2023-05-24T10:20:03.130Z,25.7
2023-05-24T10:21:06.429Z,23.5
2023-05-24T10:22:09.748Z,24.7
2023-05-24T10:23:13.098Z,25.4
2023-05-24T10:24:16.359Z,24.4
2023-05-24T10:25:19.611Z,23.6
2023-05-24T10:26:22.808Z,26.5
2023-05-24T10:27:26.303Z,22.8
2023-05-24T10:28:29.529Z,58.8
2023-05-24T10:29:32.635Z,48.1
2023-05-24T10:30:36.043Z,31.2
2023-05-24T10:31:39.251Z,30.7
2023-05-24T10:32:41.530Z,23.3
2023-05-24T10:33:44.836Z,30.9
2023-05-24T10:34:48.286Z,21.2
2023-05-24T10:35:51.544Z,25.3
2023-05-24T10:36:54.697Z,25.3
2023-05-24T10:37:58.178Z,21.9
2023-05-24T10:39:01.293Z,22.5
2023-05-24T10:40:04.581Z,18.4
2023-05-24T10:41:07.957Z,17.79
2023-05-24T10:42:11.159Z,17.7
2023-05-24T10:43:14.440Z,15.2
2023-05-24T10:44:17.743Z,22.9
2023-05-24T10:45:21.034Z,28.5
2023-05-24T10:46:23.349Z,22.8
2023-05-24T10:47:26.630Z,15.6
2023-05-24T10:48:30.248Z,19.7
2023-05-24T10:49:33.524Z,17.79
2023-05-24T10:50:36.819Z,21.7
2023-05-24T10:51:40.141Z,20
2023-05-24T10:52:43.396Z,45.8
2023-05-24T10:53:46.712Z,37.9
2023-05-24T10:54:49.981Z,73.4
2023-05-24T10:55:53.293Z,118.2
2023-05-24T10:56:56.566Z,138.39
2023-05-24T10:57:59.877Z,131.1
2023-05-24T10:59:03.180Z,148.39
2023-05-24T11:00:05.462Z,112.6
2023-05-24T11:01:08.766Z,149.89
2023-05-24T11:02:12.062Z,114.1
2023-05-24T11:03:15.357Z,69.3
2023-05-24T11:04:18.650Z,99.4
2023-05-24T11:05:20.959Z,81.9
2023-05-24T11:06:24.273Z,55.7
2023-05-24T11:07:27.583Z,44.7
2023-05-24T11:08:30.866Z,48.6
2023-05-24T11:09:34.157Z,47.3
2023-05-24T11:10:37.431Z,39.5
2023-05-24T11:11:40.748Z,42.8
2023-05-24T11:12:44.043Z,37.09
2023-05-24T11:13:47.322Z,35.4
2023-05-24T11:14:50.609Z,38
2023-05-24T11:15:53.900Z,48.6
2023-05-24T11:16:57.213Z,36.59
2023-05-24T11:18:00.488Z,46.3
2023-05-24T11:19:02.798Z,44.5
2023-05-24T11:20:06.112Z,39.09
2023-05-24T11:21:09.384Z,41.8
2023-05-24T11:22:12.674Z,28.8
2023-05-24T11:23:15.959Z,43.5
2023-05-24T11:24:19.276Z,42.5
2023-05-24T11:25:22.557Z,42.4
2023-05-24T11:26:25.856Z,56.4
2023-05-24T11:27:29.138Z,53.9
2023-05-24T11:28:32.434Z,40.59
2023-05-24T11:29:35.731Z,34.59
2023-05-24T11:30:39.025Z,52.1
2023-05-24T11:31:42.297Z,47.5
2023-05-24T11:32:44.619Z,38.9
2023-05-24T11:33:47.919Z,36.59
2023-05-24T11:34:51.199Z,37.09
2023-05-24T11:35:54.488Z,37.8
2023-05-24T11:36:57.797Z,28.7
2023-05-24T11:38:01.068Z,34.3
2023-05-24T11:39:04.379Z,31.3
2023-05-24T11:40:07.656Z,30.6
2023-05-24T11:41:10.957Z,28.4
2023-05-24T11:42:14.255Z,26.5
2023-05-24T11:43:17.531Z,29.3
2023-05-24T11:44:20.833Z,23.5
2023-05-24T11:45:24.685Z,29.5
2023-05-24T11:46:26.898Z,26.9
2023-05-24T11:47:30.588Z,26.7
2023-05-24T11:48:33.886Z,23.1
2023-05-24T11:49:37.188Z,25.7
2023-05-24T11:50:40.479Z,21.7
2023-05-24T11:51:43.755Z,21.3
2023-05-24T11:52:47.052Z,16.2
2023-05-24T11:53:50.349Z,19.2
2023-05-24T11:54:53.646Z,20.1
2023-05-24T11:55:56.942Z,20.5
2023-05-24T11:57:00.225Z,19.5
2023-05-24T11:58:03.533Z,17.6
2023-05-24T11:59:06.813Z,18.5
2023-05-24T12:00:09.122Z,13.1
2023-05-24T12:01:12.414Z,15
2023-05-24T12:02:15.696Z,19.29
2023-05-24T12:03:18.998Z,14.6
2023-05-24T12:04:22.283Z,14.2
2023-05-24T12:05:25.571Z,17.9
2023-05-24T12:06:28.875Z,16.9
2023-05-24T12:07:32.151Z,13.8
2023-05-24T12:08:35.451Z,12.5
2023-05-24T12:09:38.739Z,17.29
2023-05-24T12:10:42.033Z,16.2
2023-05-24T12:11:45.325Z,14.2
2023-05-24T12:12:48.623Z,14.4
2023-05-24T12:13:50.919Z,13.2
2023-05-24T12:14:54.212Z,12.7
2023-05-24T12:15:57.503Z,10.6
2023-05-24T12:17:00.807Z,12.5
2023-05-24T12:18:04.102Z,8.39
2023-05-24T12:19:07.394Z,11.1
2023-05-24T12:20:10.670Z,11.7
2023-05-24T12:21:13.967Z,11.6
2023-05-24T12:22:17.281Z,8.1
2023-05-24T12:23:20.593Z,10
2023-05-24T12:24:23.852Z,9.39
2023-05-24T12:25:27.147Z,7.9
2023-05-24T12:26:30.818Z,7.4
2023-05-24T12:27:33.122Z,8.89
2023-05-24T12:28:36.421Z,6.3
2023-05-24T12:29:39.705Z,8.6
2023-05-24T12:30:43.002Z,7.4
2023-05-24T12:31:46.306Z,7.3
2023-05-24T12:32:49.582Z,6.5
2023-05-24T12:33:52.878Z,6.8
2023-05-24T12:34:56.163Z,5.1
2023-05-24T12:35:59.482Z,8
2023-05-24T12:37:02.765Z,6
2023-05-24T12:38:06.052Z,9.3
2023-05-24T12:39:09.349Z,4.8
2023-05-24T12:40:12.630Z,3
2023-05-24T12:41:14.946Z,3.8
2023-05-24T12:42:18.232Z,4.69
2023-05-24T12:43:21.527Z,3.8
2023-05-24T12:44:24.944Z,4.1
2023-05-24T12:45:28.227Z,4
2023-05-24T12:46:31.515Z,3.9
2023-05-24T12:47:34.819Z,4.19
2023-05-24T12:48:38.110Z,3.8
2023-05-24T12:49:41.405Z,3.3
2023-05-24T12:50:44.686Z,3.6
2023-05-24T12:51:48.033Z,2.7
2023-05-24T12:52:51.284Z,4.19
2023-05-24T12:53:54.587Z,3.3
2023-05-24T12:54:56.877Z,2.4
2023-05-24T12:56:00.185Z,3.5
2023-05-24T12:57:03.459Z,2.8
2023-05-24T12:58:06.754Z,3.5
2023-05-24T12:59:10.059Z,3.2
2023-05-24T13:00:13.332Z,2.3
2023-05-24T13:01:16.634Z,2.4
2023-05-24T13:02:19.947Z,3
2023-05-24T13:03:23.229Z,1.8
2023-05-24T13:04:26.525Z,2.8
2023-05-24T13:05:29.801Z,3.2
2023-05-24T13:06:33.099Z,1.9
2023-05-24T13:07:36.391Z,2.09
2023-05-24T13:08:38.709Z,1.5
2023-05-24T13:09:41.992Z,2
2023-05-24T13:10:45.300Z,2.3
2023-05-24T13:11:48.582Z,3.6
2023-05-24T13:12:51.883Z,2.8
2023-05-24T13:13:55.167Z,3
2023-05-24T13:14:58.479Z,3.9
2023-05-24T13:16:01.748Z,4.69
2023-05-24T13:17:05.032Z,3.6
2023-05-24T13:18:08.326Z,2.7
2023-05-24T13:19:11.665Z,5.2
2023-05-24T13:20:14.927Z,3.8
2023-05-24T13:21:18.204Z,3.7
2023-05-24T13:22:20.513Z,2.8
2023-05-24T13:23:23.815Z,2.8
2023-05-24T13:24:27.093Z,1.8
2023-05-24T13:25:30.396Z,1.3
2023-05-24T13:26:33.704Z,1.4
2023-05-24T13:27:36.980Z,1.2
2023-05-24T13:28:40.272Z,2.09
2023-05-24T13:29:43.573Z,1.6
2023-05-24T13:30:46.854Z,1.2
2023-05-24T13:31:50.147Z,1.5
2023-05-24T13:32:53.466Z,1.4
2023-05-24T13:33:56.738Z,1.5
2023-05-24T13:35:00.217Z,1.2
2023-05-24T13:36:02.403Z,1.6
2023-05-24T13:37:05.644Z,1.5
2023-05-24T13:38:09.046Z,1.1
2023-05-24T13:39:12.376Z,0.9
2023-05-24T13:40:15.607Z,1.3
2023-05-24T13:41:18.825Z,1.7
2023-05-24T13:42:22.108Z,1.6
2023-05-24T13:44:28.841Z,1.8
2023-05-24T13:45:31.975Z,1.1
2023-05-24T13:46:35.491Z,0.8
2023-05-24T13:47:38.706Z,1
2023-05-24T13:48:41.885Z,1.1
2023-05-24T13:49:44.151Z,0.9
2023-05-24T13:50:47.569Z,1
2023-05-24T13:51:50.733Z,1.5
2023-05-24T13:52:54.051Z,0.7
2023-05-24T13:53:57.322Z,1.5
2023-05-24T13:55:00.604Z,1.4
2023-05-24T13:56:03.900Z,1.5
2023-05-24T13:57:07.215Z,0.6
2023-05-24T13:58:10.579Z,0.8
2023-05-24T13:59:13.847Z,1
2023-05-24T14:00:17.065Z,1.4
2023-05-24T14:01:20.356Z,1.7
2023-05-24T14:02:23.745Z,1.3
2023-05-24T14:03:25.985Z,0.8
2023-05-24T14:04:29.256Z,1
2023-05-24T14:05:32.536Z,1.2
2023-05-24T14:06:35.825Z,1.2
2023-05-24T14:07:39.130Z,2.09
2023-05-24T14:08:42.405Z,0.7
2023-05-24T14:09:45.713Z,1.5
2023-05-24T14:10:49.092Z,1.7
2023-05-24T14:11:52.286Z,1.1
2023-05-24T14:12:55.577Z,0.7
2023-05-24T14:13:58.883Z,0.8
2023-05-24T14:15:02.168Z,2.2
2023-05-24T14:16:05.471Z,1.7
2023-05-24T14:17:07.809Z,1
2023-05-24T14:18:11.073Z,0.9
2023-05-24T14:19:14.357Z,1.2
2023-05-24T14:20:17.636Z,0.8
2023-05-24T14:21:20.991Z,0.8
2023-05-24T14:22:24.244Z,1.3
2023-05-24T14:23:27.548Z,0.8
2023-05-24T14:24:30.815Z,0.6
2023-05-24T14:25:34.103Z,0.9
2023-05-24T14:26:37.416Z,0.9
2023-05-24T14:27:40.679Z,1.4
2023-05-24T14:28:43.973Z,0.7
2023-05-24T14:29:47.346Z,0.7
2023-05-24T14:30:49.614Z,0.9
2023-05-24T14:31:52.866Z,0.6
2023-05-24T14:32:56.285Z,0.8
2023-05-24T14:33:59.550Z,0.6
2023-05-24T14:35:02.774Z,1.3
2023-05-24T14:36:06.117Z,1.1
2023-05-24T14:37:08.363Z,1.1
2023-05-24T14:38:11.693Z,0.7
2023-05-24T14:39:14.957Z,1.3